FPCM CYRQ-CYRQ
Flight info
| Callsign | FPCM |
|---|---|
| Flight time | 1h 14m |
| Altitude | 8000 |
| Route | CYRQ NOVID 1 DEP/CYMX ILS24 MISS APP/CYRQ RNAV 23 |
| Aircraft | C310/L-G430/C |
Departure
| Time | 2026-05-07 23:33 |
|---|---|
| Airport | Trois-Rivières Airport (CYRQ) |
Arrival
| Time | 2026-05-08 00:48 |
|---|---|
| Airport | Trois-Rivières Airport (CYRQ) |
| Time | Latitude | Longitude | Altitude | Speed | Heading |
|---|---|---|---|---|---|
| 2026-05-07 23:25 | 46.36417 | -72.67525 | 203 ft | 0 kts | 33° |
| 2026-05-07 23:30 | 46.36420 | -72.67515 | 203 ft | 4 kts | 116° |
| 2026-05-07 23:30 | 46.36361 | -72.67541 | 203 ft | 11 kts | 179° |
| 2026-05-07 23:31 | 46.36287 | -72.67520 | 203 ft | 11 kts | 171° |
| 2026-05-07 23:31 | 46.36207 | -72.67520 | 207 ft | 12 kts | 184° |
| 2026-05-07 23:31 | 46.36131 | -72.67478 | 208 ft | 12 kts | 150° |
| 2026-05-07 23:31 | 46.36053 | -72.67418 | 206 ft | 12 kts | 150° |
| 2026-05-07 23:32 | 46.35980 | -72.67360 | 209 ft | 12 kts | 160° |
| 2026-05-07 23:32 | 46.35938 | -72.67359 | 204 ft | 0 kts | 213° |
| 2026-05-07 23:33 | 46.35780 | -72.67497 | 203 ft | 66 kts | 212° |
| 2026-05-07 23:33 | 46.35247 | -72.67951 | 392 ft | 99 kts | 212° |
| 2026-05-07 23:33 | 46.34659 | -72.68492 | 898 ft | 104 kts | 226° |
| 2026-05-07 23:33 | 46.34341 | -72.69416 | 1424 ft | 102 kts | 267° |
| 2026-05-07 23:34 | 46.34254 | -72.70409 | 2034 ft | 97 kts | 264° |
| 2026-05-07 23:34 | 46.34110 | -72.71357 | 2576 ft | 98 kts | 256° |
| 2026-05-07 23:34 | 46.33927 | -72.72296 | 3067 ft | 98 kts | 262° |
| 2026-05-07 23:34 | 46.33820 | -72.73267 | 3572 ft | 96 kts | 265° |
| 2026-05-07 23:35 | 46.33656 | -72.74201 | 4044 ft | 97 kts | 259° |
| 2026-05-07 23:35 | 46.33488 | -72.75158 | 4489 ft | 99 kts | 256° |
| 2026-05-07 23:35 | 46.33289 | -72.76062 | 5001 ft | 94 kts | 257° |
| 2026-05-07 23:35 | 46.33094 | -72.76998 | 5385 ft | 98 kts | 260° |
| 2026-05-07 23:36 | 46.32937 | -72.77974 | 5778 ft | 101 kts | 260° |
| 2026-05-07 23:36 | 46.32792 | -72.78988 | 6152 ft | 105 kts | 260° |
| 2026-05-07 23:36 | 46.32592 | -72.80006 | 6514 ft | 106 kts | 258° |
| 2026-05-07 23:36 | 46.32415 | -72.81031 | 6901 ft | 103 kts | 261° |
| 2026-05-07 23:37 | 46.32250 | -72.82031 | 7298 ft | 101 kts | 260° |
| 2026-05-07 23:37 | 46.32088 | -72.82990 | 7689 ft | 93 kts | 260° |
| 2026-05-07 23:37 | 46.31942 | -72.83840 | 7976 ft | 85 kts | 259° |
| 2026-05-07 23:37 | 46.31790 | -72.84747 | 8000 ft | 99 kts | 260° |
| 2026-05-07 23:38 | 46.31615 | -72.85771 | 8014 ft | 110 kts | 259° |
| 2026-05-07 23:38 | 46.31424 | -72.86877 | 8016 ft | 119 kts | 259° |
| 2026-05-07 23:38 | 46.31216 | -72.88077 | 8025 ft | 126 kts | 259° |
| 2026-05-07 23:38 | 46.31000 | -72.89313 | 8015 ft | 131 kts | 259° |
| 2026-05-07 23:39 | 46.30776 | -72.90607 | 8016 ft | 134 kts | 258° |
| 2026-05-07 23:39 | 46.30549 | -72.91913 | 7947 ft | 130 kts | 259° |
| 2026-05-07 23:39 | 46.30332 | -72.93156 | 7827 ft | 125 kts | 258° |
| 2026-05-07 23:39 | 46.30123 | -72.94356 | 7706 ft | 122 kts | 259° |
| 2026-05-07 23:40 | 46.29920 | -72.95517 | 7592 ft | 119 kts | 259° |
| 2026-05-07 23:40 | 46.29718 | -72.96678 | 7477 ft | 118 kts | 259° |
| 2026-05-07 23:40 | 46.29514 | -72.97837 | 7355 ft | 120 kts | 259° |
| 2026-05-07 23:40 | 46.29310 | -72.99006 | 7239 ft | 122 kts | 259° |
| 2026-05-07 23:41 | 46.29100 | -73.00206 | 7117 ft | 123 kts | 259° |
| 2026-05-07 23:41 | 46.28888 | -73.01416 | 7000 ft | 125 kts | 259° |
| 2026-05-07 23:41 | 46.28673 | -73.02645 | 6876 ft | 126 kts | 259° |
| 2026-05-07 23:41 | 46.28459 | -73.03871 | 6758 ft | 127 kts | 259° |
| 2026-05-07 23:42 | 46.28239 | -73.05125 | 6637 ft | 128 kts | 259° |
| 2026-05-07 23:42 | 46.28020 | -73.06373 | 6518 ft | 129 kts | 259° |
| 2026-05-07 23:42 | 46.27801 | -73.07623 | 6395 ft | 130 kts | 259° |
| 2026-05-07 23:42 | 46.27653 | -73.08469 | 6318 ft | 130 kts | 259° |
| 2026-05-07 23:43 | 46.27356 | -73.10156 | 6163 ft | 131 kts | 259° |
| 2026-05-07 23:43 | 46.27124 | -73.11471 | 6039 ft | 138 kts | 259° |
| 2026-05-07 23:43 | 46.26965 | -73.12367 | 6028 ft | 137 kts | 259° |
| 2026-05-07 23:43 | 46.26652 | -73.14142 | 6022 ft | 137 kts | 259° |
| 2026-05-07 23:44 | 46.26496 | -73.15027 | 6026 ft | 136 kts | 259° |
| 2026-05-07 23:44 | 46.26261 | -73.16360 | 6022 ft | 136 kts | 258° |
| 2026-05-07 23:44 | 46.25872 | -73.17601 | 6017 ft | 140 kts | 236° |
| 2026-05-07 23:44 | 46.25252 | -73.18693 | 6021 ft | 140 kts | 236° |
| 2026-05-07 23:45 | 46.24645 | -73.19815 | 6028 ft | 145 kts | 238° |
| 2026-05-07 23:45 | 46.24017 | -73.21004 | 6025 ft | 152 kts | 238° |
| 2026-05-07 23:45 | 46.23379 | -73.22235 | 6032 ft | 156 kts | 238° |
| 2026-05-07 23:45 | 46.22717 | -73.23501 | 6029 ft | 158 kts | 238° |
| 2026-05-07 23:46 | 46.22054 | -73.24768 | 6032 ft | 160 kts | 237° |
| 2026-05-07 23:46 | 46.21376 | -73.26066 | 6029 ft | 161 kts | 237° |
| 2026-05-07 23:46 | 46.20716 | -73.27329 | 6027 ft | 157 kts | 238° |
| 2026-05-07 23:46 | 46.20061 | -73.28583 | 6019 ft | 155 kts | 238° |
| 2026-05-07 23:47 | 46.19416 | -73.29816 | 6012 ft | 154 kts | 238° |
| 2026-05-07 23:47 | 46.18768 | -73.31053 | 6010 ft | 152 kts | 238° |
| 2026-05-07 23:47 | 46.18133 | -73.32267 | 6012 ft | 152 kts | 238° |
| 2026-05-07 23:47 | 46.17500 | -73.33475 | 6018 ft | 151 kts | 238° |
| 2026-05-07 23:48 | 46.16871 | -73.34675 | 6013 ft | 151 kts | 238° |
| 2026-05-07 23:48 | 46.16234 | -73.35890 | 6019 ft | 150 kts | 238° |
| 2026-05-07 23:48 | 46.15608 | -73.37083 | 6019 ft | 150 kts | 238° |
| 2026-05-07 23:48 | 46.14971 | -73.38296 | 6017 ft | 150 kts | 238° |
| 2026-05-07 23:49 | 46.14346 | -73.39488 | 6019 ft | 150 kts | 238° |
| 2026-05-07 23:49 | 46.13711 | -73.40696 | 6016 ft | 150 kts | 238° |
| 2026-05-07 23:49 | 46.13088 | -73.41881 | 6018 ft | 150 kts | 238° |
| 2026-05-07 23:49 | 46.12455 | -73.43086 | 6019 ft | 150 kts | 238° |
| 2026-05-07 23:50 | 46.11830 | -73.44274 | 6012 ft | 150 kts | 238° |
| 2026-05-07 23:50 | 46.11199 | -73.45473 | 6020 ft | 149 kts | 238° |
| 2026-05-07 23:50 | 46.10568 | -73.46671 | 6021 ft | 149 kts | 238° |
| 2026-05-07 23:50 | 46.09937 | -73.47871 | 6021 ft | 149 kts | 237° |
| 2026-05-07 23:51 | 46.09316 | -73.49048 | 6026 ft | 149 kts | 238° |
| 2026-05-07 23:51 | 46.08688 | -73.50240 | 6023 ft | 149 kts | 238° |
| 2026-05-07 23:51 | 46.08062 | -73.51426 | 6021 ft | 149 kts | 237° |
| 2026-05-07 23:51 | 46.07441 | -73.52604 | 6019 ft | 149 kts | 238° |
| 2026-05-07 23:52 | 46.06814 | -73.53793 | 6024 ft | 149 kts | 237° |
| 2026-05-07 23:52 | 46.06186 | -73.54982 | 6021 ft | 149 kts | 238° |
| 2026-05-07 23:52 | 46.05564 | -73.56156 | 6023 ft | 149 kts | 237° |
| 2026-05-07 23:52 | 46.04933 | -73.57349 | 6023 ft | 149 kts | 237° |
| 2026-05-07 23:53 | 46.04300 | -73.58545 | 6023 ft | 149 kts | 237° |
| 2026-05-07 23:53 | 46.03669 | -73.59737 | 6018 ft | 149 kts | 237° |
| 2026-05-07 23:53 | 46.03047 | -73.60913 | 6028 ft | 149 kts | 237° |
| 2026-05-07 23:53 | 46.02417 | -73.62102 | 6025 ft | 149 kts | 237° |
| 2026-05-07 23:54 | 46.01787 | -73.63291 | 6028 ft | 149 kts | 237° |
| 2026-05-07 23:54 | 46.01158 | -73.64479 | 6008 ft | 148 kts | 237° |
| 2026-05-07 23:54 | 46.00537 | -73.65655 | 5953 ft | 147 kts | 237° |
| 2026-05-07 23:54 | 45.99918 | -73.66823 | 5900 ft | 147 kts | 237° |
| 2026-05-07 23:55 | 45.99299 | -73.67991 | 5842 ft | 147 kts | 237° |
| 2026-05-07 23:55 | 45.98690 | -73.69139 | 5790 ft | 146 kts | 237° |
| 2026-05-07 23:55 | 45.98075 | -73.70297 | 5737 ft | 146 kts | 237° |
| 2026-05-07 23:55 | 45.97459 | -73.71457 | 5683 ft | 146 kts | 237° |
| 2026-05-07 23:56 | 45.96842 | -73.72618 | 5630 ft | 146 kts | 237° |
| 2026-05-07 23:56 | 45.96226 | -73.73777 | 5576 ft | 146 kts | 237° |
| 2026-05-07 23:56 | 45.95610 | -73.74936 | 5524 ft | 145 kts | 237° |
| 2026-05-07 23:56 | 45.94996 | -73.76089 | 5471 ft | 145 kts | 238° |
| 2026-05-07 23:57 | 45.94381 | -73.77245 | 5418 ft | 145 kts | 237° |
| 2026-05-07 23:57 | 45.93774 | -73.78385 | 5364 ft | 145 kts | 237° |
| 2026-05-07 23:57 | 45.93161 | -73.79536 | 5313 ft | 145 kts | 238° |
| 2026-05-07 23:57 | 45.92545 | -73.80692 | 5263 ft | 145 kts | 237° |
| 2026-05-07 23:58 | 45.91937 | -73.81835 | 5209 ft | 146 kts | 238° |
| 2026-05-07 23:58 | 45.91313 | -73.83002 | 5149 ft | 147 kts | 238° |
| 2026-05-07 23:58 | 45.90691 | -73.84172 | 5044 ft | 150 kts | 237° |
| 2026-05-07 23:58 | 45.90052 | -73.85368 | 4945 ft | 152 kts | 237° |
| 2026-05-07 23:59 | 45.89395 | -73.86590 | 4822 ft | 156 kts | 236° |
| 2026-05-07 23:59 | 45.88472 | -73.87465 | 4681 ft | 168 kts | 202° |
| 2026-05-07 23:59 | 45.87274 | -73.87431 | 4553 ft | 180 kts | 168° |
| 2026-05-07 23:59 | 45.86228 | -73.86446 | 4405 ft | 182 kts | 134° |
| 2026-05-08 00:00 | 45.85602 | -73.84917 | 4258 ft | 172 kts | 121° |
| 2026-05-08 00:00 | 45.84890 | -73.83608 | 4106 ft | 162 kts | 138° |
| 2026-05-08 00:00 | 45.84111 | -73.82500 | 3940 ft | 153 kts | 140° |
| 2026-05-08 00:00 | 45.83390 | -73.81484 | 3757 ft | 136 kts | 142° |
| 2026-05-08 00:01 | 45.82634 | -73.80908 | 3564 ft | 116 kts | 185° |
| 2026-05-08 00:01 | 45.81890 | -73.80994 | 3393 ft | 103 kts | 200° |
| 2026-05-08 00:01 | 45.81212 | -73.81236 | 3273 ft | 97 kts | 228° |
| 2026-05-08 00:01 | 45.80739 | -73.81907 | 3183 ft | 97 kts | 245° |
| 2026-05-08 00:02 | 45.80382 | -73.82711 | 3184 ft | 96 kts | 244° |
| 2026-05-08 00:02 | 45.79939 | -73.83436 | 3185 ft | 96 kts | 233° |
| 2026-05-08 00:02 | 45.79459 | -73.84130 | 3076 ft | 97 kts | 236° |
| 2026-05-08 00:02 | 45.79003 | -73.84839 | 2962 ft | 98 kts | 236° |
| 2026-05-08 00:03 | 45.78847 | -73.85084 | 2926 ft | 98 kts | 236° |
| 2026-05-08 00:03 | 45.78704 | -73.85303 | 2905 ft | 98 kts | 234° |
| 2026-05-08 00:03 | 45.78207 | -73.85991 | 2822 ft | 100 kts | 231° |
| 2026-05-08 00:03 | 45.77697 | -73.86677 | 2720 ft | 100 kts | 233° |
| 2026-05-08 00:04 | 45.77211 | -73.87413 | 2542 ft | 103 kts | 234° |
| 2026-05-08 00:04 | 45.76736 | -73.88171 | 2370 ft | 103 kts | 234° |
| 2026-05-08 00:04 | 45.76284 | -73.88957 | 2239 ft | 101 kts | 239° |
| 2026-05-08 00:04 | 45.75829 | -73.89709 | 2146 ft | 102 kts | 229° |
| 2026-05-08 00:05 | 45.75279 | -73.90351 | 1972 ft | 101 kts | 230° |
| 2026-05-08 00:05 | 45.74794 | -73.91047 | 1840 ft | 98 kts | 236° |
| 2026-05-08 00:05 | 45.74340 | -73.91776 | 1654 ft | 99 kts | 229° |
| 2026-05-08 00:05 | 45.73805 | -73.92425 | 1465 ft | 102 kts | 228° |
| 2026-05-08 00:06 | 45.73358 | -73.93176 | 1400 ft | 96 kts | 238° |
| 2026-05-08 00:06 | 45.72873 | -73.93865 | 1230 ft | 104 kts | 226° |
| 2026-05-08 00:06 | 45.72338 | -73.94560 | 1076 ft | 101 kts | 229° |
| 2026-05-08 00:06 | 45.71878 | -73.95356 | 954 ft | 108 kts | 223° |
| 2026-05-08 00:07 | 45.71304 | -73.96064 | 877 ft | 107 kts | 231° |
| 2026-05-08 00:07 | 45.70792 | -73.96849 | 725 ft | 113 kts | 227° |
| 2026-05-08 00:07 | 45.70234 | -73.97654 | 612 ft | 111 kts | 227° |
| 2026-05-08 00:07 | 45.69662 | -73.98432 | 422 ft | 112 kts | 228° |
| 2026-05-08 00:08 | 45.69151 | -73.99103 | 882 ft | 101 kts | 226° |
| 2026-05-08 00:08 | 45.68677 | -73.99794 | 1509 ft | 94 kts | 233° |
| 2026-05-08 00:08 | 45.68197 | -74.00484 | 1980 ft | 98 kts | 233° |
| 2026-05-08 00:08 | 45.67708 | -74.01156 | 2451 ft | 100 kts | 229° |
| 2026-05-08 00:09 | 45.67170 | -74.01797 | 2937 ft | 99 kts | 227° |
| 2026-05-08 00:09 | 45.66502 | -74.02293 | 2989 ft | 129 kts | 193° |
| 2026-05-08 00:09 | 45.65671 | -74.01666 | 3062 ft | 153 kts | 130° |
| 2026-05-08 00:09 | 45.65020 | -74.00469 | 3165 ft | 153 kts | 126° |
| 2026-05-08 00:10 | 45.64467 | -73.99161 | 3257 ft | 153 kts | 124° |
| 2026-05-08 00:10 | 45.63923 | -73.97872 | 3338 ft | 154 kts | 124° |
| 2026-05-08 00:10 | 45.63366 | -73.96550 | 3422 ft | 154 kts | 124° |
| 2026-05-08 00:10 | 45.62812 | -73.95233 | 3504 ft | 155 kts | 122° |
| 2026-05-08 00:11 | 45.62750 | -73.93750 | 3554 ft | 154 kts | 60° |
| 2026-05-08 00:11 | 45.63485 | -73.92766 | 3638 ft | 141 kts | 14° |
| 2026-05-08 00:11 | 45.64376 | -73.92216 | 3728 ft | 146 kts | 27° |
| 2026-05-08 00:11 | 45.65156 | -73.91258 | 3814 ft | 148 kts | 36° |
| 2026-05-08 00:12 | 45.65902 | -73.90249 | 3898 ft | 148 kts | 37° |
| 2026-05-08 00:12 | 45.66633 | -73.89247 | 4015 ft | 144 kts | 37° |
| 2026-05-08 00:12 | 45.67382 | -73.88230 | 4301 ft | 152 kts | 36° |
| 2026-05-08 00:12 | 45.68154 | -73.87171 | 4586 ft | 158 kts | 37° |
| 2026-05-08 00:13 | 45.68967 | -73.86055 | 4871 ft | 163 kts | 38° |
| 2026-05-08 00:13 | 45.69799 | -73.84912 | 5144 ft | 167 kts | 38° |
| 2026-05-08 00:13 | 45.70630 | -73.83767 | 5411 ft | 167 kts | 38° |
| 2026-05-08 00:13 | 45.71466 | -73.82619 | 5673 ft | 169 kts | 38° |
| 2026-05-08 00:14 | 45.72318 | -73.81447 | 5947 ft | 169 kts | 38° |
| 2026-05-08 00:14 | 45.73156 | -73.80295 | 6213 ft | 168 kts | 38° |
| 2026-05-08 00:14 | 45.73998 | -73.79137 | 6465 ft | 166 kts | 38° |
| 2026-05-08 00:14 | 45.74832 | -73.77990 | 6715 ft | 165 kts | 39° |
| 2026-05-08 00:15 | 45.75653 | -73.76860 | 6968 ft | 164 kts | 39° |
| 2026-05-08 00:15 | 45.76510 | -73.75684 | 7005 ft | 176 kts | 39° |
| 2026-05-08 00:15 | 45.77405 | -73.74453 | 7015 ft | 185 kts | 39° |
| 2026-05-08 00:15 | 45.78346 | -73.73156 | 7016 ft | 189 kts | 39° |
| 2026-05-08 00:16 | 45.79280 | -73.71865 | 7017 ft | 183 kts | 39° |
| 2026-05-08 00:16 | 45.80188 | -73.70614 | 7007 ft | 180 kts | 39° |
| 2026-05-08 00:16 | 45.81082 | -73.69381 | 7004 ft | 177 kts | 39° |
| 2026-05-08 00:16 | 45.81960 | -73.68170 | 6999 ft | 175 kts | 39° |
| 2026-05-08 00:17 | 45.82827 | -73.66972 | 6996 ft | 174 kts | 39° |
| 2026-05-08 00:17 | 45.83701 | -73.65765 | 6995 ft | 173 kts | 39° |
| 2026-05-08 00:17 | 45.84562 | -73.64575 | 6995 ft | 172 kts | 39° |
| 2026-05-08 00:17 | 45.85425 | -73.63382 | 6993 ft | 171 kts | 39° |
| 2026-05-08 00:18 | 45.86274 | -73.62206 | 6997 ft | 170 kts | 39° |
| 2026-05-08 00:18 | 45.87127 | -73.61025 | 6997 ft | 170 kts | 39° |
| 2026-05-08 00:18 | 45.87980 | -73.59844 | 6993 ft | 170 kts | 39° |
| 2026-05-08 00:18 | 45.88832 | -73.58663 | 6993 ft | 170 kts | 39° |
| 2026-05-08 00:19 | 45.89673 | -73.57497 | 6991 ft | 170 kts | 39° |
| 2026-05-08 00:19 | 45.90531 | -73.56307 | 7000 ft | 169 kts | 39° |
| 2026-05-08 00:19 | 45.91372 | -73.55140 | 6995 ft | 170 kts | 39° |
| 2026-05-08 00:19 | 45.92223 | -73.53959 | 6999 ft | 171 kts | 39° |
| 2026-05-08 00:20 | 45.93073 | -73.52777 | 7002 ft | 172 kts | 39° |
| 2026-05-08 00:20 | 45.93937 | -73.51576 | 7005 ft | 173 kts | 39° |
| 2026-05-08 00:20 | 45.94806 | -73.50368 | 7009 ft | 174 kts | 39° |
| 2026-05-08 00:20 | 45.95681 | -73.49151 | 7005 ft | 175 kts | 39° |
| 2026-05-08 00:21 | 45.96555 | -73.47935 | 7005 ft | 175 kts | 39° |
| 2026-05-08 00:21 | 45.97434 | -73.46711 | 7006 ft | 176 kts | 39° |
| 2026-05-08 00:21 | 45.98303 | -73.45501 | 7007 ft | 176 kts | 39° |
| 2026-05-08 00:21 | 45.99181 | -73.44276 | 7004 ft | 176 kts | 39° |
| 2026-05-08 00:22 | 46.00062 | -73.43049 | 7005 ft | 176 kts | 39° |
| 2026-05-08 00:22 | 46.00932 | -73.41836 | 7008 ft | 176 kts | 39° |
| 2026-05-08 00:22 | 46.01809 | -73.40612 | 7006 ft | 175 kts | 39° |
| 2026-05-08 00:22 | 46.02687 | -73.39384 | 7005 ft | 175 kts | 39° |
| 2026-05-08 00:23 | 46.03564 | -73.38158 | 7005 ft | 175 kts | 39° |
| 2026-05-08 00:23 | 46.04431 | -73.36947 | 7007 ft | 175 kts | 39° |
| 2026-05-08 00:23 | 46.05309 | -73.35719 | 7004 ft | 176 kts | 39° |
| 2026-05-08 00:23 | 46.06188 | -73.34490 | 7004 ft | 175 kts | 39° |
| 2026-05-08 00:24 | 46.07062 | -73.33266 | 7004 ft | 175 kts | 39° |
| 2026-05-08 00:24 | 46.07927 | -73.32056 | 7005 ft | 175 kts | 39° |
| 2026-05-08 00:24 | 46.08805 | -73.30827 | 7001 ft | 175 kts | 39° |
| 2026-05-08 00:24 | 46.09682 | -73.29598 | 7003 ft | 175 kts | 39° |
| 2026-05-08 00:25 | 46.10548 | -73.28383 | 7003 ft | 176 kts | 39° |
| 2026-05-08 00:25 | 46.11426 | -73.27152 | 7003 ft | 176 kts | 39° |
| 2026-05-08 00:25 | 46.12304 | -73.25921 | 7004 ft | 176 kts | 39° |
| 2026-05-08 00:25 | 46.13182 | -73.24687 | 7005 ft | 176 kts | 39° |
| 2026-05-08 00:26 | 46.14050 | -73.23469 | 7001 ft | 176 kts | 39° |
| 2026-05-08 00:26 | 46.14928 | -73.22234 | 7003 ft | 176 kts | 39° |
| 2026-05-08 00:26 | 46.15810 | -73.20995 | 7002 ft | 176 kts | 39° |
| 2026-05-08 00:26 | 46.16677 | -73.19775 | 7001 ft | 176 kts | 39° |
| 2026-05-08 00:27 | 46.17556 | -73.18537 | 7001 ft | 176 kts | 39° |
| 2026-05-08 00:27 | 46.18419 | -73.17323 | 7001 ft | 175 kts | 39° |
| 2026-05-08 00:27 | 46.19298 | -73.16085 | 7003 ft | 175 kts | 40° |
| 2026-05-08 00:27 | 46.20172 | -73.14854 | 7000 ft | 175 kts | 39° |
| 2026-05-08 00:28 | 46.21034 | -73.13639 | 6999 ft | 175 kts | 39° |
| 2026-05-08 00:28 | 46.21909 | -73.12405 | 6998 ft | 175 kts | 39° |
| 2026-05-08 00:28 | 46.22770 | -73.11189 | 6998 ft | 175 kts | 40° |
| 2026-05-08 00:28 | 46.23643 | -73.09956 | 6999 ft | 175 kts | 40° |
| 2026-05-08 00:29 | 46.24510 | -73.08732 | 6999 ft | 175 kts | 40° |
| 2026-05-08 00:29 | 46.25369 | -73.07518 | 6998 ft | 174 kts | 39° |
| 2026-05-08 00:29 | 46.26247 | -73.06277 | 6999 ft | 174 kts | 39° |
| 2026-05-08 00:29 | 46.27106 | -73.05063 | 6997 ft | 174 kts | 39° |
| 2026-05-08 00:30 | 46.27968 | -73.03842 | 6995 ft | 174 kts | 40° |
| 2026-05-08 00:30 | 46.28838 | -73.02610 | 6996 ft | 174 kts | 39° |
| 2026-05-08 00:30 | 46.29688 | -73.01401 | 6960 ft | 167 kts | 40° |
| 2026-05-08 00:30 | 46.30495 | -73.00255 | 6807 ft | 159 kts | 39° |
| 2026-05-08 00:31 | 46.31275 | -72.99154 | 6659 ft | 155 kts | 39° |
| 2026-05-08 00:31 | 46.32047 | -72.98061 | 6519 ft | 152 kts | 39° |
| 2026-05-08 00:31 | 46.32791 | -72.97007 | 6381 ft | 150 kts | 38° |
| 2026-05-08 00:31 | 46.33532 | -72.95954 | 6250 ft | 148 kts | 38° |
| 2026-05-08 00:32 | 46.34261 | -72.94921 | 6114 ft | 147 kts | 38° |
| 2026-05-08 00:32 | 46.34978 | -72.93902 | 5979 ft | 146 kts | 38° |
| 2026-05-08 00:32 | 46.35705 | -72.92870 | 5840 ft | 145 kts | 38° |
| 2026-05-08 00:32 | 46.36423 | -72.91849 | 5704 ft | 145 kts | 38° |
| 2026-05-08 00:33 | 46.37146 | -72.90820 | 5569 ft | 145 kts | 38° |
| 2026-05-08 00:33 | 46.37858 | -72.89807 | 5423 ft | 145 kts | 39° |
| 2026-05-08 00:33 | 46.38592 | -72.88757 | 5248 ft | 150 kts | 39° |
| 2026-05-08 00:33 | 46.39343 | -72.87684 | 5078 ft | 153 kts | 39° |
| 2026-05-08 00:34 | 46.40105 | -72.86598 | 4907 ft | 155 kts | 39° |
| 2026-05-08 00:34 | 46.40881 | -72.85492 | 4738 ft | 157 kts | 39° |
| 2026-05-08 00:34 | 46.41657 | -72.84386 | 4568 ft | 159 kts | 39° |
| 2026-05-08 00:34 | 46.42451 | -72.83253 | 4388 ft | 161 kts | 39° |
| 2026-05-08 00:35 | 46.43257 | -72.82102 | 4207 ft | 162 kts | 39° |
| 2026-05-08 00:35 | 46.44064 | -72.80949 | 4025 ft | 163 kts | 39° |
| 2026-05-08 00:35 | 46.44870 | -72.79797 | 3850 ft | 164 kts | 39° |
| 2026-05-08 00:35 | 46.45682 | -72.78636 | 3720 ft | 162 kts | 39° |
| 2026-05-08 00:36 | 46.46464 | -72.77516 | 3623 ft | 158 kts | 39° |
| 2026-05-08 00:36 | 46.47242 | -72.76402 | 3529 ft | 156 kts | 39° |
| 2026-05-08 00:36 | 46.48011 | -72.75300 | 3421 ft | 155 kts | 39° |
| 2026-05-08 00:36 | 46.48778 | -72.74199 | 3313 ft | 155 kts | 40° |
| 2026-05-08 00:37 | 46.49540 | -72.73108 | 3231 ft | 152 kts | 39° |
| 2026-05-08 00:37 | 46.50287 | -72.72040 | 3148 ft | 149 kts | 39° |
| 2026-05-08 00:37 | 46.50774 | -72.71349 | 3084 ft | 147 kts | 39° |
| 2026-05-08 00:38 | 46.52202 | -72.69307 | 2908 ft | 142 kts | 39° |
| 2026-05-08 00:38 | 46.52903 | -72.68300 | 2822 ft | 140 kts | 39° |
| 2026-05-08 00:38 | 46.53591 | -72.67312 | 2721 ft | 138 kts | 39° |
| 2026-05-08 00:38 | 46.54254 | -72.66359 | 2704 ft | 133 kts | 38° |
| 2026-05-08 00:39 | 46.54899 | -72.65435 | 2707 ft | 128 kts | 38° |
| 2026-05-08 00:39 | 46.55534 | -72.64525 | 2706 ft | 128 kts | 38° |
| 2026-05-08 00:39 | 46.55948 | -72.63402 | 2707 ft | 134 kts | 82° |
| 2026-05-08 00:39 | 46.55692 | -72.62126 | 2710 ft | 134 kts | 127° |
| 2026-05-08 00:40 | 46.55163 | -72.61023 | 2710 ft | 133 kts | 126° |
| 2026-05-08 00:40 | 46.54659 | -72.59896 | 2711 ft | 132 kts | 124° |
| 2026-05-08 00:40 | 46.54171 | -72.58764 | 2709 ft | 132 kts | 123° |
| 2026-05-08 00:40 | 46.53693 | -72.57640 | 2705 ft | 131 kts | 123° |
| 2026-05-08 00:41 | 46.53215 | -72.56512 | 2706 ft | 131 kts | 123° |
| 2026-05-08 00:41 | 46.52741 | -72.55386 | 2710 ft | 131 kts | 123° |
| 2026-05-08 00:41 | 46.52230 | -72.54294 | 2703 ft | 130 kts | 141° |
| 2026-05-08 00:41 | 46.51447 | -72.53882 | 2712 ft | 118 kts | 191° |
| 2026-05-08 00:42 | 46.50726 | -72.54273 | 2710 ft | 105 kts | 221° |
| 2026-05-08 00:42 | 46.50124 | -72.54807 | 2707 ft | 97 kts | 220° |
| 2026-05-08 00:42 | 46.49570 | -72.55299 | 2707 ft | 92 kts | 221° |
| 2026-05-08 00:42 | 46.49031 | -72.55776 | 2717 ft | 92 kts | 220° |
| 2026-05-08 00:43 | 46.48461 | -72.56288 | 2738 ft | 103 kts | 219° |
| 2026-05-08 00:43 | 46.47825 | -72.56854 | 2747 ft | 112 kts | 218° |
| 2026-05-08 00:43 | 46.47153 | -72.57444 | 2744 ft | 114 kts | 219° |
| 2026-05-08 00:43 | 46.46471 | -72.58041 | 2716 ft | 115 kts | 217° |
| 2026-05-08 00:44 | 46.45761 | -72.58645 | 2580 ft | 120 kts | 216° |
| 2026-05-08 00:44 | 46.45040 | -72.59258 | 2484 ft | 120 kts | 222° |
| 2026-05-08 00:44 | 46.44402 | -72.59953 | 2396 ft | 111 kts | 225° |
| 2026-05-08 00:44 | 46.43776 | -72.60549 | 2424 ft | 105 kts | 214° |
| 2026-05-08 00:45 | 46.43098 | -72.61035 | 2232 ft | 111 kts | 214° |
| 2026-05-08 00:45 | 46.42416 | -72.61568 | 2051 ft | 112 kts | 219° |
| 2026-05-08 00:45 | 46.41813 | -72.62227 | 1836 ft | 109 kts | 226° |
| 2026-05-08 00:45 | 46.41174 | -72.62837 | 1546 ft | 110 kts | 217° |
| 2026-05-08 00:46 | 46.40511 | -72.63374 | 1267 ft | 108 kts | 215° |
| 2026-05-08 00:46 | 46.39859 | -72.63935 | 1045 ft | 108 kts | 216° |
| 2026-05-08 00:46 | 46.39238 | -72.64517 | 984 ft | 108 kts | 216° |
| 2026-05-08 00:46 | 46.38572 | -72.65056 | 856 ft | 110 kts | 210° |
| 2026-05-08 00:47 | 46.37925 | -72.65591 | 770 ft | 106 kts | 220° |
| 2026-05-08 00:47 | 46.37313 | -72.66162 | 604 ft | 106 kts | 217° |
| 2026-05-08 00:47 | 46.36694 | -72.66690 | 407 ft | 100 kts | 216° |
| 2026-05-08 00:47 | 46.36121 | -72.67194 | 229 ft | 91 kts | 214° |
| 2026-05-08 00:48 | 46.35667 | -72.67599 | 204 ft | 51 kts | 206° |
| 2026-05-08 00:48 | 46.35506 | -72.67752 | 207 ft | 22 kts | 210° |
| 2026-05-08 00:48 | 46.35449 | -72.67847 | 208 ft | 11 kts | 287° |
| 2026-05-08 00:48 | 46.35489 | -72.67944 | 201 ft | 11 kts | 304° |
| 2026-05-08 00:49 | 46.35499 | -72.67966 | 201 ft | 0 kts | 302° |
| 2026-05-08 00:49 | 46.35511 | -72.67994 | 203 ft | 9 kts | 300° |
| 2026-05-08 00:50 | 46.35559 | -72.68059 | 205 ft | 11 kts | 350° |
| 2026-05-08 00:50 | 46.35634 | -72.68005 | 203 ft | 13 kts | 31° |
| 2026-05-08 00:50 | 46.35725 | -72.67925 | 201 ft | 17 kts | 29° |
| 2026-05-08 00:50 | 46.35824 | -72.67836 | 207 ft | 16 kts | 32° |
| 2026-05-08 00:51 | 46.35920 | -72.67752 | 201 ft | 16 kts | 30° |
| 2026-05-08 00:51 | 46.36015 | -72.67667 | 202 ft | 16 kts | 31° |
| 2026-05-08 00:51 | 46.36107 | -72.67586 | 202 ft | 15 kts | 31° |
| 2026-05-08 00:51 | 46.36200 | -72.67529 | 202 ft | 14 kts | 359° |
| 2026-05-08 00:52 | 46.36284 | -72.67522 | 203 ft | 11 kts | 355° |
| 2026-05-08 00:52 | 46.36359 | -72.67541 | 205 ft | 11 kts | 353° |
| 2026-05-08 00:52 | 46.36425 | -72.67494 | 205 ft | 9 kts | 33° |
| 2026-05-08 00:52 | 46.36432 | -72.67519 | 206 ft | 4 kts | 205° |
| 2026-05-08 00:53 | 46.36430 | -72.67520 | 205 ft | 0 kts | 207° |